Time;durP1;ratioP1;P1;durP2;ratioP2;P2;SDS_P1;SDS_P2;PMS_P1;PMS_P2;Temp;Humidity;BMP_temperature;BMP_pressure;BME280_temperature;BME280_humidity;BME280_pressure;Samples;Min_cycle;Max_cycle;Signal;HPM_P1;HPM_P2
2023/01/26 05:32:36;;;;;;;;;65.00;48.25;;;;;;;;6337074;22;45180;-58
2023/01/26 05:35:01;;;;;;;;;63.50;47.25;;;;;;;;6337984;22;45293;-58
2023/01/26 05:37:27;;;;;;;;;58.00;45.00;;;;;;;;6337237;22;45237;-58
2023/01/26 05:39:53;;;;;;;;;68.25;50.50;;;;;;;;6337907;22;45377;-59
2023/01/26 05:42:18;;;;;;;;;60.75;45.75;;;;;;;;6337889;22;45275;-59
2023/01/26 05:44:43;;;;;;;;;62.00;46.00;;;;;;;;6338381;22;45359;-59
2023/01/26 05:47:09;;;;;;;;;63.25;48.00;;;;;;;;6337220;22;45381;-59
2023/01/26 05:49:37;;;;;;;;;60.25;45.25;;;;;;;;6338303;22;45395;-59
2023/01/26 05:52:06;;;;;;;;;64.50;50.25;;;;;;;;6337798;22;45351;-59
2023/01/26 05:54:31;;;;;;;;;68.50;50.25;;;;;;;;6338218;22;45385;-59
2023/01/26 05:56:57;;;;;;;;;64.50;48.50;;;;;;;;6337633;22;45330;-59
2023/01/26 05:59:22;;;;;;;;;69.75;51.50;;;;;;;;6338063;22;45334;-59
2023/01/26 06:01:47;;;;;;;;;69.75;49.00;;;;;;;;6338618;22;45229;-58
2023/01/26 06:04:12;;;;;;;;;62.75;46.25;;;;;;;;6338802;22;45237;-58
2023/01/26 06:06:37;;;;;;;;;67.00;46.75;;;;;;;;6340042;22;45215;-59
2023/01/26 06:09:02;;;;;;;;;65.75;48.75;;;;;;;;6336572;22;45259;-59
2023/01/26 06:11:30;;;;;;;;;63.50;49.75;;;;;;;;6339136;22;45192;-58
2023/01/26 06:13:55;;;;;;;;;67.00;47.25;;;;;;;;6339037;22;45349;-59
2023/01/26 06:16:20;;;;;;;;;58.50;44.75;;;;;;;;6339513;22;45586;-58
2023/01/26 06:18:48;;;;;;;;;60.50;44.75;;;;;;;;6328982;22;45305;-59
2023/01/26 06:21:14;;;;;;;;;57.50;48.50;;;;;;;;6338275;22;45171;-58
2023/01/26 06:23:39;;;;;;;;;68.75;48.25;;;;;;;;6338625;22;45273;-59
2023/01/26 06:26:05;;;;;;;;;68.50;49.50;;;;;;;;6338910;22;45290;-57
2023/01/26 06:28:30;;;;;;;;;65.25;50.00;;;;;;;;6339407;22;45638;-55
2023/01/26 06:30:59;;;;;;;;;62.50;44.25;;;;;;;;6337492;22;45234;-54
2023/01/26 06:33:24;;;;;;;;;69.00;48.00;;;;;;;;6339004;22;45395;-53
2023/01/26 06:35:51;;;;;;;;;62.25;46.00;;;;;;;;6338555;22;45800;-55
2023/01/26 06:38:16;;;;;;;;;73.50;52.00;;;;;;;;6337546;22;46187;-56
2023/01/26 06:40:41;;;;;;;;;59.25;43.00;;;;;;;;6307516;22;45375;-55
2023/01/26 06:43:06;;;;;;;;;64.75;48.50;;;;;;;;6336440;22;45525;-56
2023/01/26 06:45:32;;;;;;;;;66.50;48.50;;;;;;;;6336632;22;45461;-55
2023/01/26 06:47:57;;;;;;;;;63.00;47.25;;;;;;;;6335868;22;46131;-56
2023/01/26 06:50:25;;;;;;;;;61.25;47.00;;;;;;;;6337148;22;45677;-56
2023/01/26 06:52:53;;;;;;;;;66.00;47.75;;;;;;;;6336109;22;45331;-56
2023/01/26 06:55:21;;;;;;;;;53.00;39.25;;;;;;;;6308337;22;45386;-55
2023/01/26 06:57:46;;;;;;;;;54.75;43.75;;;;;;;;6338967;22;46273;-56
2023/01/26 07:00:12;;;;;;;;;57.25;42.25;;;;;;;;6338688;22;45370;-54
2023/01/26 07:02:37;;;;;;;;;62.00;46.00;;;;;;;;6311572;22;45291;-56
2023/01/26 07:05:02;;;;;;;;;67.00;48.50;;;;;;;;6338345;22;45286;-53
2023/01/26 07:07:28;;;;;;;;;61.75;45.25;;;;;;;;6338926;22;45278;-55
2023/01/26 07:09:53;;;;;;;;;67.00;48.50;;;;;;;;6336821;22;45432;-55
2023/01/26 07:12:18;;;;;;;;;69.00;48.25;;;;;;;;6338190;22;45429;-52
2023/01/26 07:14:43;;;;;;;;;58.00;44.00;;;;;;;;6337599;22;45736;-56
2023/01/26 07:17:08;;;;;;;;;60.00;46.00;;;;;;;;6339184;22;45944;-55
2023/01/26 07:19:34;;;;;;;;;61.25;44.50;;;;;;;;6336714;22;45151;-53
2023/01/26 07:21:59;;;;;;;;;63.50;45.50;;;;;;;;6336985;22;45264;-55
2023/01/26 07:24:25;;;;;;;;;67.25;43.25;;;;;;;;6339407;22;45282;-55
2023/01/26 07:26:50;;;;;;;;;61.50;46.00;;;;;;;;6337821;22;45303;-57
2023/01/26 07:29:15;;;;;;;;;58.00;42.25;;;;;;;;6310600;22;45343;-55
2023/01/26 07:31:43;;;;;;;;;54.00;42.50;;;;;;;;6339052;22;45572;-54
2023/01/26 07:34:08;;;;;;;;;63.50;44.50;;;;;;;;6338962;22;45533;-53
2023/01/26 07:36:33;;;;;;;;;58.75;44.50;;;;;;;;6338586;22;45271;-53
2023/01/26 07:38:58;;;;;;;;;60.75;42.75;;;;;;;;6338568;22;45380;-52
2023/01/26 07:41:23;;;;;;;;;58.25;44.75;;;;;;;;6338902;22;45289;-54
2023/01/26 07:43:50;;;;;;;;;52.25;39.25;;;;;;;;6338277;22;45579;-52
2023/01/26 07:46:15;;;;;;;;;62.00;47.00;;;;;;;;6339448;22;46802;-56
2023/01/26 07:48:41;;;;;;;;;56.25;42.75;;;;;;;;6339459;22;45348;-55
2023/01/26 07:51:08;;;;;;;;;60.50;44.50;;;;;;;;6311229;22;45248;-54
2023/01/26 07:53:38;;;;;;;;;59.00;39.50;;;;;;;;6338697;22;45713;-55
2023/01/26 07:56:07;;;;;;;;;58.75;45.75;;;;;;;;6337914;22;46269;-54
2023/01/26 07:58:35;;;;;;;;;61.00;46.75;;;;;;;;6310538;22;45328;-56
2023/01/26 08:01:18;;;;;;;;;68.00;48.50;;;;;;;;6337386;22;45248;-56
2023/01/26 08:03:46;;;;;;;;;62.75;44.75;;;;;;;;6334424;22;45354;-56
2023/01/26 08:06:12;;;;;;;;;54.75;40.50;;;;;;;;6337319;22;45348;-58
2023/01/26 08:08:40;;;;;;;;;64.50;46.50;;;;;;;;6336357;22;45554;-58
2023/01/26 08:11:06;;;;;;;;;66.75;46.25;;;;;;;;6338097;22;45246;-58
2023/01/26 08:13:31;;;;;;;;;60.75;44.50;;;;;;;;6338888;22;45381;-58
2023/01/26 08:16:10;;;;;;;;;69.75;48.75;;;;;;;;6335487;22;45479;-57
2023/01/26 08:18:36;;;;;;;;;67.25;49.00;;;;;;;;6338046;22;45461;-59
2023/01/26 08:21:02;;;;;;;;;64.25;47.00;;;;;;;;6337328;22;45253;-58
2023/01/26 08:23:27;;;;;;;;;66.50;46.50;;;;;;;;6338680;22;45604;-58
2023/01/26 08:25:52;;;;;;;;;64.00;50.00;;;;;;;;6336896;22;45981;-58
2023/01/26 08:28:17;;;;;;;;;65.50;49.00;;;;;;;;6337999;22;45412;-58
2023/01/26 08:30:43;;;;;;;;;61.00;43.75;;;;;;;;6337711;22;45315;-57
2023/01/26 08:33:08;;;;;;;;;58.75;44.00;;;;;;;;6337930;22;45223;-59
2023/01/26 08:35:33;;;;;;;;;62.00;43.00;;;;;;;;6337914;22;46985;-59
2023/01/26 08:37:59;;;;;;;;;57.00;42.75;;;;;;;;6336755;22;45414;-56
2023/01/26 08:40:24;;;;;;;;;57.00;44.25;;;;;;;;6337905;22;45415;-56
2023/01/26 08:42:50;;;;;;;;;58.75;46.75;;;;;;;;6337457;22;45304;-57
2023/01/26 08:45:16;;;;;;;;;57.75;40.25;;;;;;;;6338205;22;45507;-57
2023/01/26 08:47:41;;;;;;;;;54.25;43.25;;;;;;;;6337961;22;45344;-58
2023/01/26 08:50:06;;;;;;;;;61.25;45.50;;;;;;;;6338216;22;45296;-58
2023/01/26 08:52:31;;;;;;;;;58.25;45.00;;;;;;;;6334319;22;45314;-57
2023/01/26 08:54:57;;;;;;;;;64.25;47.50;;;;;;;;6337183;22;45429;-57
2023/01/26 08:57:22;;;;;;;;;62.25;44.75;;;;;;;;6309832;22;45366;-58
2023/01/26 08:59:47;;;;;;;;;59.50;42.75;;;;;;;;6338241;22;45394;-58
2023/01/26 09:02:13;;;;;;;;;55.75;43.50;;;;;;;;6337245;22;45389;-58
2023/01/26 09:04:38;;;;;;;;;59.50;46.00;;;;;;;;6338056;22;45395;-57
2023/01/26 09:07:04;;;;;;;;;62.00;47.00;;;;;;;;6337674;22;45380;-57
2023/01/26 09:09:29;;;;;;;;;65.25;44.00;;;;;;;;6337751;22;45301;-56
2023/01/26 09:11:55;;;;;;;;;56.25;43.50;;;;;;;;6337084;22;45347;-57
2023/01/26 09:14:20;;;;;;;;;63.75;49.75;;;;;;;;6337295;22;46398;-56
2023/01/26 09:16:45;;;;;;;;;61.50;44.00;;;;;;;;6337717;22;45294;-58
2023/01/26 09:19:10;;;;;;;;;66.00;47.25;;;;;;;;6337424;22;45262;-57
2023/01/26 09:21:36;;;;;;;;;77.00;53.50;;;;;;;;6336137;22;45279;-58
2023/01/26 09:24:01;;;;;;;;;60.75;42.75;;;;;;;;6336429;22;45440;-57
2023/01/26 09:26:27;;;;;;;;;65.50;51.25;;;;;;;;6335753;22;45278;-57
2023/01/26 09:28:53;;;;;;;;;68.00;51.25;;;;;;;;6337656;22;45413;-55
2023/01/26 09:31:18;;;;;;;;;63.75;47.50;;;;;;;;6333014;22;45492;-55
2023/01/26 09:33:43;;;;;;;;;59.50;43.25;;;;;;;;6337245;22;45962;-56
2023/01/26 09:36:09;;;;;;;;;70.00;49.25;;;;;;;;6337610;22;45313;-59
2023/01/26 09:38:34;;;;;;;;;67.25;47.75;;;;;;;;6338574;22;45623;-58
2023/01/26 09:41:06;;;;;;;;;64.50;47.75;;;;;;;;6337757;22;45311;-59
2023/01/26 09:43:32;;;;;;;;;59.25;47.25;;;;;;;;6339050;22;45342;-59
2023/01/26 09:46:36;;;;;;;;;68.50;44.75;;;;;;;;6336520;22;45381;-59
2023/01/26 09:49:20;;;;;;;;;58.50;41.25;;;;;;;;6241851;22;45594;-58
2023/01/26 09:51:45;;;;;;;;;59.50;46.75;;;;;;;;6243315;22;45265;-58
2023/01/26 09:54:11;;;;;;;;;58.00;46.50;;;;;;;;6297554;22;45532;-58
2023/01/26 09:56:36;;;;;;;;;40.25;35.25;;;;;;;;6339061;22;45364;-59
2023/01/26 09:59:01;;;;;;;;;59.00;43.25;;;;;;;;6338606;22;45235;-58
2023/01/26 10:01:39;;;;;;;;;58.50;40.75;;;;;;;;6311273;22;45330;-59
2023/01/26 10:04:04;;;;;;;;;43.75;38.75;;;;;;;;6338806;22;46082;-59
2023/01/26 10:06:31;;;;;;;;;46.25;39.25;;;;;;;;6339178;22;45330;-59
2023/01/26 10:09:10;;;;;;;;;57.00;42.25;;;;;;;;6338891;22;45396;-58
2023/01/26 10:11:37;;;;;;;;;50.00;38.25;;;;;;;;6339379;22;45236;-58
2023/01/26 10:14:19;;;;;;;;;52.75;41.75;;;;;;;;6338360;22;45361;-58
2023/01/26 10:16:47;;;;;;;;;53.75;40.75;;;;;;;;6339020;22;45305;-56
2023/01/26 10:19:32;;;;;;;;;49.00;40.75;;;;;;;;6338437;22;45325;-57
2023/01/26 10:21:59;;;;;;;;;55.00;39.50;;;;;;;;6338373;22;45336;-56
2023/01/26 10:24:24;;;;;;;;;50.25;38.75;;;;;;;;6338776;22;45450;-57
2023/01/26 10:26:51;;;;;;;;;52.25;44.75;;;;;;;;6338832;22;45513;-59
2023/01/26 10:29:17;;;;;;;;;56.50;39.50;;;;;;;;6339374;22;45373;-57
2023/01/26 10:31:43;;;;;;;;;35.00;33.50;;;;;;;;6338526;22;45430;-58
2023/01/26 10:34:25;;;;;;;;;49.25;38.25;;;;;;;;6338694;22;46315;-59
2023/01/26 10:36:54;;;;;;;;;52.25;40.25;;;;;;;;6339197;22;45312;-58
2023/01/26 10:39:19;;;;;;;;;49.00;40.25;;;;;;;;6338574;22;45313;-58
2023/01/26 10:41:56;;;;;;;;;50.75;40.75;;;;;;;;6339003;22;45296;-57
2023/01/26 10:44:30;;;;;;;;;51.00;39.50;;;;;;;;6337984;22;46304;-57
2023/01/26 10:47:12;;;;;;;;;43.75;36.50;;;;;;;;6338664;22;45350;-56
2023/01/26 10:49:37;;;;;;;;;53.25;38.25;;;;;;;;6338924;22;45409;-54
2023/01/26 10:52:05;;;;;;;;;49.25;41.00;;;;;;;;6338482;22;45649;-57
2023/01/26 10:54:32;;;;;;;;;52.00;41.00;;;;;;;;6338722;22;46552;-55
2023/01/26 10:57:06;;;;;;;;;44.50;37.50;;;;;;;;6337850;22;45289;-55
2023/01/26 10:59:31;;;;;;;;;54.00;36.25;;;;;;;;6338929;22;45282;-56
2023/01/26 11:02:16;;;;;;;;;50.50;38.25;;;;;;;;6337234;22;45398;-56
2023/01/26 11:05:00;;;;;;;;;48.50;35.25;;;;;;;;6338128;22;45241;-56
2023/01/26 11:07:26;;;;;;;;;59.00;43.25;;;;;;;;6311006;22;45288;-56
2023/01/26 11:09:53;;;;;;;;;53.25;39.00;;;;;;;;6338004;22;45449;-57
2023/01/26 11:12:19;;;;;;;;;52.75;40.00;;;;;;;;6338704;22;45668;-55
2023/01/26 11:15:01;;;;;;;;;43.75;37.50;;;;;;;;6337610;22;45467;-56
2023/01/26 11:17:32;;;;;;;;;54.75;42.50;;;;;;;;6337992;22;45253;-56
2023/01/26 11:20:01;;;;;;;;;67.00;50.50;;;;;;;;6338023;22;45409;-59
2023/01/26 11:22:36;;;;;;;;;61.75;47.75;;;;;;;;6338556;22;45582;-57
2023/01/26 11:25:07;;;;;;;;;47.25;38.25;;;;;;;;6337403;22;45260;-57
2023/01/26 11:27:39;;;;;;;;;56.75;41.25;;;;;;;;6335870;22;45384;-63
2023/01/26 11:30:16;;;;;;;;;60.75;43.25;;;;;;;;6335026;22;45428;-60
2023/01/26 11:33:00;;;;;;;;;41.75;37.75;;;;;;;;6337285;22;45376;-63
2023/01/26 11:35:28;;;;;;;;;51.00;41.50;;;;;;;;6336278;22;45404;-59
2023/01/26 11:38:08;;;;;;;;;47.75;35.25;;;;;;;;6336893;22;45180;-61
2023/01/26 11:40:45;;;;;;;;;34.75;30.00;;;;;;;;6338033;22;45349;-60
2023/01/26 11:43:23;;;;;;;;;35.00;30.75;;;;;;;;6337566;22;45369;-57
2023/01/26 11:46:06;;;;;;;;;43.50;35.25;;;;;;;;6338988;22;46017;-58
2023/01/26 11:48:44;;;;;;;;;27.75;26.25;;;;;;;;6338974;22;45329;-58
2023/01/26 11:51:28;;;;;;;;;48.25;41.00;;;;;;;;6309970;22;45519;-60
2023/01/26 11:53:59;;;;;;;;;30.00;26.75;;;;;;;;6338403;22;45499;-61
2023/01/26 11:56:30;;;;;;;;;42.75;32.25;;;;;;;;6338635;22;45796;-56
2023/01/26 11:59:15;;;;;;;;;26.25;22.50;;;;;;;;6338032;22;45290;-58
2023/01/26 12:01:44;;;;;;;;;29.50;25.75;;;;;;;;6337776;22;45361;-59
2023/01/26 12:04:21;;;;;;;;;37.00;28.25;;;;;;;;6337855;22;45356;-59
2023/01/26 12:07:02;;;;;;;;;36.50;27.00;;;;;;;;6339203;22;46217;-60
2023/01/26 12:09:35;;;;;;;;;34.50;29.75;;;;;;;;6310270;22;45217;-62
2023/01/26 12:12:04;;;;;;;;;37.25;34.25;;;;;;;;6338324;22;45191;-58
2023/01/26 12:14:41;;;;;;;;;33.00;29.25;;;;;;;;6338323;22;45452;-59
2023/01/26 12:17:39;;;;;;;;;30.00;27.75;;;;;;;;6338028;22;45989;-59
2023/01/26 12:20:22;;;;;;;;;34.75;30.00;;;;;;;;6285323;22;45298;-64
2023/01/26 12:22:59;;;;;;;;;37.50;25.00;;;;;;;;6339622;22;45263;-57
2023/01/26 12:25:27;;;;;;;;;24.00;20.33;;;;;;;;6338417;22;45427;-61
2023/01/26 12:28:05;;;;;;;;;22.00;19.67;;;;;;;;6337570;22;46332;-62
2023/01/26 12:30:34;;;;;;;;;23.67;20.67;;;;;;;;6310805;22;45369;-57
2023/01/26 12:32:59;;;;;;;;;25.00;23.33;;;;;;;;6309799;22;45461;-58
2023/01/26 12:35:48;;;;;;;;;19.00;17.33;;;;;;;;6339967;22;45455;-63
2023/01/26 12:38:17;;;;;;;;;21.33;19.00;;;;;;;;6296376;22;46899;-61
2023/01/26 12:40:57;;;;;;;;;30.67;19.00;;;;;;;;6337573;22;45564;-59
2023/01/26 12:43:31;;;;;;;;;19.00;16.33;;;;;;;;6337932;22;45289;-60
2023/01/26 12:45:56;;;;;;;;;22.33;17.67;;;;;;;;6338439;22;45567;-59
2023/01/26 12:48:26;;;;;;;;;19.33;16.33;;;;;;;;6338661;22;46232;-59
2023/01/26 12:50:55;;;;;;;;;15.50;13.00;;;;;;;;6337483;22;45388;-59
2023/01/26 12:53:23;;;;;;;;;18.00;16.33;;;;;;;;6338385;22;45418;-60
2023/01/26 12:55:53;;;;;;;;;12.33;10.00;;;;;;;;6338134;22;45627;-59
2023/01/26 12:58:28;;;;;;;;;19.00;16.33;;;;;;;;6309644;22;48370;-59
2023/01/26 13:01:04;;;;;;;;;17.33;14.67;;;;;;;;6336824;22;45364;-59
2023/01/26 13:03:38;;;;;;;;;15.33;14.00;;;;;;;;6338118;22;45298;-59
2023/01/26 13:06:09;;;;;;;;;15.33;13.67;;;;;;;;6337637;22;45385;-59
2023/01/26 13:08:34;;;;;;;;;20.33;15.00;;;;;;;;6337028;22;45362;-59
2023/01/26 13:11:07;;;;;;;;;20.00;17.67;;;;;;;;6336877;22;45503;-59
2023/01/26 13:13:34;;;;;;;;;19.33;13.00;;;;;;;;6337910;22;45388;-59
2023/01/26 13:16:28;;;;;;;;;21.25;20.00;;;;;;;;6337923;22;45322;-59
2023/01/26 13:18:58;;;;;;;;;19.00;16.33;;;;;;;;6335100;22;45355;-59
2023/01/26 13:21:42;;;;;;;;;22.67;14.67;;;;;;;;6338028;22;45397;-60
2023/01/26 13:24:16;;;;;;;;;22.00;19.00;;;;;;;;6337846;22;45444;-60
2023/01/26 13:26:44;;;;;;;;;29.00;21.67;;;;;;;;6338787;22;45400;-59
2023/01/26 13:29:24;;;;;;;;;25.67;19.67;;;;;;;;6337881;22;46244;-59
2023/01/26 13:31:53;;;;;;;;;18.50;17.75;;;;;;;;6336954;22;45643;-60
2023/01/26 13:34:21;;;;;;;;;29.33;20.00;;;;;;;;6338680;22;45361;-59
2023/01/26 13:36:47;;;;;;;;;32.33;27.33;;;;;;;;6338583;22;45526;-59
2023/01/26 13:39:17;;;;;;;;;26.75;24.25;;;;;;;;6337833;22;45297;-59
2023/01/26 13:41:44;;;;;;;;;20.00;12.33;;;;;;;;6338226;22;45381;-59
2023/01/26 13:44:13;;;;;;;;;24.25;19.00;;;;;;;;6338233;22;45323;-59
2023/01/26 13:46:42;;;;;;;;;23.25;20.75;;;;;;;;6338292;22;45622;-59
2023/01/26 13:49:22;;;;;;;;;24.33;19.67;;;;;;;;6337858;22;45297;-59
2023/01/26 13:51:47;;;;;;;;;26.75;25.00;;;;;;;;6338249;22;45356;-60
2023/01/26 13:54:13;;;;;;;;;26.00;22.25;;;;;;;;6338395;22;45160;-59
2023/01/26 13:56:57;;;;;;;;;20.00;19.67;;;;;;;;6338243;22;45618;-59
2023/01/26 13:59:23;;;;;;;;;24.00;18.67;;;;;;;;6337087;22;45297;-59
2023/01/26 14:01:50;;;;;;;;;20.00;18.33;;;;;;;;6337973;22;45210;-60
2023/01/26 14:04:16;;;;;;;;;21.00;18.25;;;;;;;;6338759;22;45370;-59
2023/01/26 14:06:45;;;;;;;;;19.00;17.33;;;;;;;;6338435;22;45468;-59
2023/01/26 14:09:12;;;;;;;;;20.00;18.67;;;;;;;;6337808;22;45377;-60
2023/01/26 14:11:37;;;;;;;;;24.67;17.67;;;;;;;;6338056;22;45342;-61
2023/01/26 14:14:02;;;;;;;;;23.00;19.33;;;;;;;;6338178;22;45357;-61
2023/01/26 14:16:35;;;;;;;;;26.00;19.33;;;;;;;;6338288;22;45329;-60
2023/01/26 14:19:09;;;;;;;;;21.00;16.67;;;;;;;;6337942;22;45709;-60
2023/01/26 14:21:45;;;;;;;;;24.25;21.00;;;;;;;;6338495;22;45282;-60
2023/01/26 14:24:10;;;;;;;;;22.33;20.67;;;;;;;;6338416;22;45423;-59
2023/01/26 14:26:36;;;;;;;;;31.75;27.00;;;;;;;;6339490;22;45317;-58
2023/01/26 14:29:02;;;;;;;;;26.00;23.00;;;;;;;;6339306;22;46136;-60
2023/01/26 14:31:28;;;;;;;;;30.00;25.00;;;;;;;;6310757;22;45310;-58
2023/01/26 14:33:56;;;;;;;;;26.75;25.25;;;;;;;;6339210;22;45388;-59
2023/01/26 14:36:22;;;;;;;;;26.00;22.67;;;;;;;;6339695;22;45294;-59
2023/01/26 14:38:49;;;;;;;;;22.00;20.67;;;;;;;;6339628;22;46047;-59
2023/01/26 14:41:21;;;;;;;;;15.67;13.33;;;;;;;;6338457;22;45313;-60
2023/01/26 14:43:47;;;;;;;;;22.33;18.00;;;;;;;;6339341;22;45577;-59
2023/01/26 14:46:17;;;;;;;;;27.75;22.75;;;;;;;;6339075;22;45359;-59
2023/01/26 14:48:46;;;;;;;;;15.67;15.33;;;;;;;;6339454;22;45957;-59
2023/01/26 14:51:19;;;;;;;;;17.33;15.67;;;;;;;;6338852;22;45398;-60
2023/01/26 14:54:03;;;;;;;;;21.00;17.67;;;;;;;;6339514;22;45360;-61
2023/01/26 14:56:32;;;;;;;;;18.67;14.33;;;;;;;;6339734;22;45287;-60
2023/01/26 14:58:58;;;;;;;;;15.33;14.67;;;;;;;;6339190;22;46105;-61
2023/01/26 15:01:24;;;;;;;;;21.33;14.00;;;;;;;;6339737;22;45377;-60
2023/01/26 15:03:55;;;;;;;;;19.00;18.00;;;;;;;;6340070;22;45291;-61
2023/01/26 15:06:24;;;;;;;;;19.00;16.00;;;;;;;;6340020;22;45461;-60
2023/01/26 15:08:55;;;;;;;;;16.00;16.00;;;;;;;;6339121;22;46259;-60
2023/01/26 15:14:28;;;;;;;;;20.00;18.00;;;;;;;;6340091;22;45325;-59
2023/01/26 15:16:53;;;;;;;;;18.00;16.00;;;;;;;;6339472;22;45381;-60
2023/01/26 15:19:23;;;;;;;;;19.67;16.33;;;;;;;;6311183;22;46162;-60
2023/01/26 15:21:49;;;;;;;;;19.00;16.00;;;;;;;;6339440;22;45349;-60
2023/01/26 15:24:14;;;;;;;;;32.75;29.00;;;;;;;;6337492;22;45720;-59
2023/01/26 15:26:39;;;;;;;;;29.00;26.75;;;;;;;;6339577;22;45271;-61
2023/01/26 15:29:14;;;;;;;;;12.33;11.67;;;;;;;;6339304;22;45286;-60
2023/01/26 15:31:41;;;;;;;;;19.67;19.67;;;;;;;;6339396;22;45401;-60
2023/01/26 15:34:26;;;;;;;;;20.67;18.33;;;;;;;;6339117;22;45366;-60
2023/01/26 15:36:51;;;;;;;;;26.00;19.33;;;;;;;;6338692;22;45313;-60
2023/01/26 15:39:17;;;;;;;;;27.50;25.25;;;;;;;;6339045;22;45459;-60
2023/01/26 15:41:43;;;;;;;;;21.33;21.00;;;;;;;;6337477;22;45286;-60
2023/01/26 15:44:13;;;;;;;;;20.67;18.00;;;;;;;;6339347;22;45309;-59
2023/01/26 15:46:39;;;;;;;;;17.67;16.00;;;;;;;;6339494;22;45442;-59
2023/01/26 15:49:04;;;;;;;;;20.67;15.00;;;;;;;;6338544;22;47000;-59
2023/01/26 15:51:29;;;;;;;;;21.67;17.33;;;;;;;;6337371;22;45489;-60
2023/01/26 15:53:54;;;;;;;;;21.33;16.67;;;;;;;;6339257;22;45410;-60
2023/01/26 15:56:19;;;;;;;;;18.00;18.00;;;;;;;;6339481;22;45555;-59
2023/01/26 15:58:45;;;;;;;;;29.00;20.67;;;;;;;;6339679;22;46185;-60
2023/01/26 16:01:14;;;;;;;;;21.67;16.00;;;;;;;;6337502;22;45317;-60
2023/01/26 16:03:40;;;;;;;;;24.00;20.00;;;;;;;;6339495;22;45330;-60
2023/01/26 16:06:05;;;;;;;;;11.33;11.33;;;;;;;;6339282;22;45306;-60
2023/01/26 16:08:30;;;;;;;;;26.67;18.33;;;;;;;;6339221;22;45373;-60
2023/01/26 16:10:56;;;;;;;;;24.67;18.33;;;;;;;;6339023;22;45362;-60
2023/01/26 16:13:21;;;;;;;;;24.67;20.00;;;;;;;;6339823;22;45323;-59
2023/01/26 16:15:47;;;;;;;;;20.33;17.00;;;;;;;;6340119;22;45187;-60
2023/01/26 16:18:13;;;;;;;;;19.00;15.00;;;;;;;;6339135;22;46221;-60
2023/01/26 16:20:40;;;;;;;;;8.00;4.33;;;;;;;;6339372;22;45297;-59
2023/01/26 16:23:17;;;;;;;;;23.00;18.67;;;;;;;;6338931;22;45784;-59
2023/01/26 16:25:42;;;;;;;;;17.00;12.33;;;;;;;;6338605;22;45287;-60
2023/01/26 16:28:07;;;;;;;;;19.67;15.00;;;;;;;;6337822;22;46030;-61
2023/01/26 16:30:32;;;;;;;;;12.67;12.67;;;;;;;;6339132;22;45222;-60
2023/01/26 16:32:57;;;;;;;;;13.67;10.00;;;;;;;;6338722;22;45389;-59
2023/01/26 16:35:24;;;;;;;;;15.00;13.00;;;;;;;;6339768;22;45433;-60
2023/01/26 16:37:50;;;;;;;;;19.67;15.00;;;;;;;;6339183;22;46331;-59
2023/01/26 16:40:16;;;;;;;;;22.33;17.67;;;;;;;;6339168;22;45354;-59
2023/01/26 16:42:50;;;;;;;;;19.67;17.00;;;;;;;;6338715;22;45582;-61
2023/01/26 16:45:15;;;;;;;;;13.67;10.67;;;;;;;;6339333;22;45486;-60
2023/01/26 16:47:40;;;;;;;;;24.33;22.67;;;;;;;;6338384;22;45333;-59
2023/01/26 16:50:06;;;;;;;;;20.00;18.00;;;;;;;;6338574;22;45417;-59
2023/01/26 16:52:32;;;;;;;;;15.00;13.33;;;;;;;;6339554;22;45243;-60
2023/01/26 16:54:57;;;;;;;;;18.00;15.00;;;;;;;;6339000;22;45289;-60
2023/01/26 16:57:22;;;;;;;;;22.00;17.33;;;;;;;;6338491;22;45951;-60
2023/01/26 16:59:48;;;;;;;;;16.67;14.33;;;;;;;;6339068;22;45265;-60
2023/01/26 17:02:22;;;;;;;;;16.67;13.00;;;;;;;;6339053;22;45676;-60
2023/01/26 17:04:47;;;;;;;;;16.33;12.33;;;;;;;;6339205;22;45412;-60
2023/01/26 17:07:13;;;;;;;;;14.33;12.67;;;;;;;;6338598;22;45174;-61
2023/01/26 17:09:38;;;;;;;;;20.00;11.33;;;;;;;;6338900;22;45278;-59
2023/01/26 17:12:03;;;;;;;;;14.67;12.00;;;;;;;;6338436;22;45234;-59
2023/01/26 17:14:28;;;;;;;;;18.33;12.33;;;;;;;;6339186;22;45276;-61
2023/01/26 17:16:53;;;;;;;;;11.00;8.33;;;;;;;;6336619;22;45262;-59
2023/01/26 17:19:19;;;;;;;;;13.67;10.67;;;;;;;;6338649;22;45273;-59
2023/01/26 17:21:44;;;;;;;;;9.33;5.33;;;;;;;;6338059;22;45379;-59
2023/01/26 17:24:09;;;;;;;;;8.33;8.33;;;;;;;;6338015;22;45475;-59
2023/01/26 17:26:34;;;;;;;;;13.33;8.00;;;;;;;;6338197;22;46104;-60
2023/01/26 17:29:00;;;;;;;;;9.33;7.67;;;;;;;;6338801;22;45811;-59
2023/01/26 17:31:25;;;;;;;;;11.00;10.33;;;;;;;;6338624;22;45320;-61
2023/01/26 17:33:50;;;;;;;;;9.00;7.33;;;;;;;;6338218;22;45310;-60
2023/01/26 17:36:16;;;;;;;;;12.67;7.33;;;;;;;;6338826;22;46106;-60
2023/01/26 17:38:42;;;;;;;;;7.00;6.33;;;;;;;;6310676;22;45361;-60
2023/01/26 17:41:07;;;;;;;;;7.00;7.00;;;;;;;;6337964;22;45378;-59
2023/01/26 17:43:33;;;;;;;;;9.00;8.00;;;;;;;;6338835;22;45301;-60
2023/01/26 17:46:04;;;;;;;;;11.33;8.00;;;;;;;;6337983;22;45941;-61
2023/01/26 17:48:29;;;;;;;;;10.33;8.00;;;;;;;;6339230;22;45397;-61
2023/01/26 17:50:55;;;;;;;;;9.00;9.00;;;;;;;;6337354;22;45345;-59
2023/01/26 17:53:23;;;;;;;;;9.33;9.33;;;;;;;;6339088;22;45263;-62
2023/01/26 17:55:48;;;;;;;;;9.00;5.00;;;;;;;;6337717;22;46283;-63
2023/01/26 17:58:13;;;;;;;;;23.00;16.00;;;;;;;;6310153;22;45374;-60
2023/01/26 18:00:39;;;;;;;;;11.67;10.33;;;;;;;;6339543;22;45365;-60
2023/01/26 18:03:04;;;;;;;;;8.67;8.67;;;;;;;;6339247;22;45378;-60
2023/01/26 18:05:30;;;;;;;;;11.67;10.00;;;;;;;;6340369;22;46043;-60
2023/01/26 18:07:55;;;;;;;;;11.67;9.33;;;;;;;;6339394;22;45215;-59
2023/01/26 18:10:20;;;;;;;;;14.00;11.00;;;;;;;;6340400;22;45379;-59
2023/01/26 18:12:45;;;;;;;;;11.00;9.67;;;;;;;;6340154;22;45290;-59
2023/01/26 18:15:11;;;;;;;;;10.67;8.67;;;;;;;;6339253;22;45277;-59
2023/01/26 18:17:36;;;;;;;;;17.00;15.67;;;;;;;;6337855;22;45313;-59
2023/01/26 18:20:03;;;;;;;;;14.00;11.67;;;;;;;;6337655;22;45279;-59
2023/01/26 18:22:28;;;;;;;;;11.33;9.67;;;;;;;;6338250;22;45278;-59
2023/01/26 18:24:53;;;;;;;;;23.00;21.00;;;;;;;;6338789;22;46117;-60
2023/01/26 18:27:19;;;;;;;;;20.67;16.00;;;;;;;;6338988;22;45220;-60
2023/01/26 18:29:44;;;;;;;;;19.67;17.00;;;;;;;;6339255;22;45494;-60
2023/01/26 18:32:09;;;;;;;;;17.00;16.00;;;;;;;;6338989;22;45280;-60
2023/01/26 18:34:35;;;;;;;;;23.00;21.00;;;;;;;;6339246;22;45645;-60
2023/01/26 18:37:00;;;;;;;;;27.00;22.33;;;;;;;;6339456;22;46077;-61
2023/01/26 18:39:27;;;;;;;;;20.00;17.00;;;;;;;;6339816;22;45798;-60
2023/01/26 18:41:52;;;;;;;;;23.33;21.00;;;;;;;;6337556;22;45306;-59
2023/01/26 18:44:18;;;;;;;;;19.33;18.67;;;;;;;;6339905;22;45452;-61
2023/01/26 18:46:43;;;;;;;;;20.00;14.00;;;;;;;;6339953;22;45366;-61
2023/01/26 18:49:08;;;;;;;;;20.00;16.67;;;;;;;;6339048;22;45228;-60
2023/01/26 18:51:34;;;;;;;;;21.67;16.00;;;;;;;;6339344;22;45436;-61
2023/01/26 18:54:00;;;;;;;;;21.33;15.00;;;;;;;;6338171;22;46024;-60
2023/01/26 18:56:26;;;;;;;;;15.33;14.67;;;;;;;;6338771;22;45534;-59
2023/01/26 18:58:52;;;;;;;;;14.00;12.67;;;;;;;;6339615;22;45242;-59
2023/01/26 19:01:19;;;;;;;;;20.33;16.33;;;;;;;;6339405;22;45368;-60
2023/01/26 19:03:46;;;;;;;;;17.33;11.33;;;;;;;;6337655;22;46089;-59
2023/01/26 19:06:12;;;;;;;;;18.00;14.33;;;;;;;;6338464;22;45379;-60
2023/01/26 19:08:38;;;;;;;;;18.00;15.67;;;;;;;;6339082;22;45507;-60
2023/01/26 19:11:04;;;;;;;;;13.67;11.67;;;;;;;;6335170;22;45348;-60
2023/01/26 19:13:30;;;;;;;;;11.67;9.67;;;;;;;;6338117;22;45246;-60
2023/01/26 19:15:55;;;;;;;;;17.33;15.00;;;;;;;;6338844;22;45298;-59
2023/01/26 19:18:20;;;;;;;;;16.00;14.67;;;;;;;;6337909;22;45278;-60
2023/01/26 19:20:53;;;;;;;;;24.67;14.33;;;;;;;;6339053;22;45303;-60
2023/01/26 19:23:18;;;;;;;;;17.00;14.67;;;;;;;;6339110;22;46610;-60
2023/01/26 19:25:43;;;;;;;;;28.33;23.33;;;;;;;;6338332;22;45426;-60
2023/01/26 19:28:08;;;;;;;;;24.67;16.33;;;;;;;;6338950;22;45254;-60
2023/01/26 19:30:34;;;;;;;;;17.00;16.67;;;;;;;;6338471;22;45440;-60
2023/01/26 19:35:44;;;;;;;;;22.33;19.67;;;;;;;;6338611;22;45348;-60
2023/01/26 19:38:09;;;;;;;;;25.00;22.00;;;;;;;;6338908;22;45538;-60
2023/01/26 19:40:34;;;;;;;;;25.67;24.67;;;;;;;;6339646;22;45261;-61
2023/01/26 19:42:59;;;;;;;;;27.67;22.00;;;;;;;;6339163;22;45231;-60
2023/01/26 19:45:25;;;;;;;;;32.33;25.33;;;;;;;;6339473;22;45345;-60
2023/01/26 19:47:50;;;;;;;;;22.00;19.33;;;;;;;;6340137;22;45246;-63
2023/01/26 19:50:15;;;;;;;;;21.33;20.33;;;;;;;;6338752;22;45222;-60
2023/01/26 19:52:41;;;;;;;;;24.67;20.33;;;;;;;;6339181;22;46277;-60
2023/01/26 19:55:06;;;;;;;;;29.67;26.00;;;;;;;;6310947;22;45565;-60
2023/01/26 19:57:31;;;;;;;;;31.67;21.00;;;;;;;;6338945;22;45344;-58
2023/01/26 19:59:56;;;;;;;;;25.67;22.67;;;;;;;;6336506;22;45398;-59
2023/01/26 20:02:22;;;;;;;;;18.33;17.00;;;;;;;;6339193;22;45294;-58